x

Port Stanley (45132) Wave Buoy

2:00pm - Fri 31st Oct 2014 All times are CDT. -5 hours from GMT.

  • Sig Wave height 1.6ft
  • Peak Period 5s
  • Wind
    9mph, 13mph gusts
  • Sea Temp 56°f
  • Air Temp 45°f
  • Sea Pressure 1011.5mb
  • Port Stanley
  • Port Stanley

More Historic Weather Station data

Upgrade to MSW Pro to gain access to the past 30 days of data for over 8000 Wavebouys and Weather Stations around the globe.

Join Pro

Comparision Forecast

View Surf forecast
   
Fri 10/31 2:00pm 1.6ft 5s 9 13 mph 1011.5mb 56f 45f
1:00pm 1.6ft 5s 2 4 mph 1011.8mb 56f 45f
12:00pm 1.6ft 5s 4 7 mph 1012.2mb 56f 45f
11:00am 2ft 5s 7 13 mph 1012.6mb 56f 46f
10:00am 2ft 5s 4 7 mph 1012.6mb 56f 46f
9:00am 1.6ft 5s 2 4 mph 1013mb 56f 46f
8:00am 1.3ft 4s 4 9 mph 1013.4mb 56f 46f
7:00am 1.3ft 4s 2 4 mph 1013.2mb 56f 48f
6:00am 1.6ft 4s 11 13 mph 1013.2mb 56f 49f
5:00am 1.3ft 4s 11 13 mph 1013.7mb 56f 48f
4:00am 0.3ft 3s 4 7 mph 1014.2mb 56f 46f
3:00am 0.3ft 2s 7 9 mph 1014.6mb 56f 46f
2:00am 0.7ft 3s 9 11 mph 1015.1mb 56f 47f
1:00am 0.7ft 3s 9 11 mph 1015.4mb 56f 50f
12:00am 0.3ft 3s 7 9 mph 1015.9mb 56f 49f
Thu 10/30 11:00pm 0.3ft 3s 4 9 mph 1016.4mb 56f 49f
10:00pm 0.7ft 3s 2 4 mph 1016.6mb 56f 49f
9:00pm 0.7ft 3s 4
mph
1017.1mb 56f 49f
8:00pm 0.7ft 3s 4 9 mph 1017.4mb 56f 49f
7:00pm 0.7ft 3s 7 9 mph 1017.8mb 57f 49f
6:00pm 0.7ft 2s 9 13 mph 1018.1mb 57f 49f
5:00pm 0.7ft 2s 11 13 mph 1018mb 57f 48f
4:00pm 0.7ft 2s 9 13 mph 1018.1mb 57f 48f
3:00pm 0.7ft 2s 9 13 mph 1018.2mb 57f 48f
2:00pm 0.7ft 2s 9 11 mph 1018.5mb 57f 48f
1:00pm 0.7ft 3s 11 13 mph 1018.9mb 57f 48f
12:00pm 0.7ft 3s 9 11 mph 1019.5mb 57f 47f
11:00am 0.7ft 3s 7 11 mph 1020mb 57f 46f
10:00am 1ft 4s 9 13 mph 1019.8mb 57f 46f
9:00am 1ft 4s 7 9 mph 1019.9mb 56f 46f
8:00am 1ft 4s 7 11 mph 1019.8mb 56f 46f
7:00am 1.3ft 4s 7 9 mph 1019.3mb 56f 45f
6:00am 1.3ft 4s 11 13 mph 1019.1mb 56f 45f
5:00am 1.6ft 4s 11 16 mph 1018.9mb 56f 46f
4:00am 1.6ft 4s 13 18 mph 1018.3mb 56f 46f
3:00am 2ft 5s 16 18 mph 1017.8mb 56f 46f
2:00am 2.5ft 5s 13 18 mph 1017.7mb 57f 47f
1:00am  -   -  16
mph
1017.2mb - 47f
12:00am 3ft 5s 22 27 mph 1016.8mb 56f 48f
Wed 10/29 11:00pm 3ft 5s 20 25 mph 1016.6mb 57f 49f
10:00pm 2.5ft 5s 22 27 mph 1016.6mb 57f 49f
9:00pm 3ft 5s 20 25 mph 1016.6mb 57f 49f
8:00pm 3ft 5s 18 20 mph 1016.3mb 57f 49f
7:00pm 3ft 5s 18 22 mph 1016.1mb 57f 50f
6:00pm 3.5ft 6s 20 25 mph 1015.4mb 57f 50f
5:00pm 3.5ft 6s 22 27 mph 1014.7mb 57f 50f
4:00pm 3.5ft 5s 18 22 mph 1014.2mb 57f 51f
3:00pm 4ft 6s 18 22 mph 1013.7mb 57f 51f
2:00pm 4.5ft 6s 20 25 mph 1013mb 57f 52f
1:00pm 4ft 6s 20 22 mph 1012.8mb 57f 53f
12:00pm 4.5ft 6s 20 25 mph 1012.9mb 57f 53f
11:00am 3.5ft 5s 22 25 mph 1013.3mb 57f 53f
10:00am 4.5ft 5s 22 27 mph 1013.2mb 57f 52f
9:00am 4ft 5s 22 29 mph 1013.2mb 57f 52f
8:00am 4ft 5s 25 29 mph 1013mb 57f 53f
7:00am 3.5ft 5s 22 27 mph 1012.8mb 57f 52f
6:00am 3.5ft 5s 22 25 mph 1012.6mb 57f 52f
5:00am 3.5ft 5s 22 27 mph 1012.5mb 57f 52f
4:00am 3.5ft 5s 22 27 mph 1012.3mb 57f 53f
3:00am 3.5ft 5s 22 25 mph 1012.2mb 57f 54f
2:00am 3.5ft 6s 18 22 mph 1012.4mb 57f 55f
1:00am 3.5ft 5s 18 22 mph 1012mb 57f 55f
12:00am 4ft 5s 18 22 mph 1012.1mb 57f 55f
Tue 10/28 11:00pm 4ft 5s 20 25 mph 1012mb 57f 55f
10:00pm 4.5ft 5s 25 29 mph 1011.3mb 58f 57f
9:00pm 4.5ft 5s 22 29 mph 1011mb 58f 58f
8:00pm 4.5ft 5s 25 29 mph 1010mb 58f 59f
7:00pm 4.5ft 5s 22 27 mph 1009.6mb 58f 59f
6:00pm 4ft 5s 22 27 mph 1008.7mb 58f 59f
5:00pm 4ft 5s 22 27 mph 1008.3mb 58f 59f
4:00pm 3.5ft 5s 18 22 mph 1007.6mb 58f 59f
3:00pm 3.5ft 5s 22 25 mph 1007.5mb 58f 60f
2:00pm 3ft 5s 18 20 mph 1007mb 58f 61f
1:00pm 3.5ft 5s 16 18 mph 1007.2mb 58f 61f
12:00pm 3.5ft 5s 22 27 mph 1007.1mb 58f 62f
11:00am 3.5ft 5s 22 25 mph 1006.8mb 58f 63f
10:00am 3.5ft 5s 20 25 mph 1007mb 58f 62f
9:00am 3ft 5s 20 25 mph 1007.5mb 58f 62f
8:00am 3ft 4s 18 20 mph 1007.5mb 58f 62f
7:00am 2.5ft 4s 20 22 mph 1007.4mb 58f 63f
6:00am  -   -  20
mph
1007.3mb - 63f
5:00am 2ft 4s 18 20 mph 1007.6mb 58f 62f
4:00am 2ft 4s 13 16 mph 1007.6mb 58f 62f
3:00am 1.6ft 4s 13 16 mph 1007.9mb 58f 62f
2:00am 1.3ft 4s 7 9 mph 1008.5mb 58f 60f
1:00am 1.6ft 3s 11
mph
1008.4mb 58f 62f
12:00am 1.6ft 4s 13 16 mph 1007.8mb 58f 62f
Mon 10/27 11:00pm 2ft 4s 16 18 mph 1007.9mb 58f 62f
10:00pm 2.5ft 4s 16 18 mph 1007.6mb 58f 63f
9:00pm 2.5ft 4s 20 22 mph 1007.3mb 58f 63f